sensor_id;sensor_type;location;lat;lon;timestamp;P1;durP1;ratioP1;P2;durP2;ratioP2
64208;SDS011;50527;52.414;13.226;2022-11-04T00:01:28;6.18;;;1.60;;
64208;SDS011;50527;52.414;13.226;2022-11-04T00:03:53;5.88;;;1.50;;
64208;SDS011;50527;52.414;13.226;2022-11-04T00:06:19;3.53;;;1.45;;
64208;SDS011;50527;52.414;13.226;2022-11-04T00:08:48;7.60;;;1.75;;
64208;SDS011;50527;52.414;13.226;2022-11-04T00:11:18;5.82;;;1.50;;
64208;SDS011;50527;52.414;13.226;2022-11-04T00:14:03;4.03;;;1.60;;
64208;SDS011;50527;52.414;13.226;2022-11-04T00:16:29;4.93;;;1.48;;
64208;SDS011;50527;52.414;13.226;2022-11-04T00:19:13;6.25;;;1.58;;
64208;SDS011;50527;52.414;13.226;2022-11-04T00:21:39;6.60;;;1.92;;
64208;SDS011;50527;52.414;13.226;2022-11-04T00:24:23;6.30;;;1.55;;
64208;SDS011;50527;52.414;13.226;2022-11-04T00:29:51;4.03;;;1.20;;
64208;SDS011;50527;52.414;13.226;2022-11-04T00:32:17;4.97;;;1.40;;
64208;SDS011;50527;52.414;13.226;2022-11-04T00:35:01;2.90;;;1.40;;
64208;SDS011;50527;52.414;13.226;2022-11-04T00:37:26;8.60;;;1.48;;
64208;SDS011;50527;52.414;13.226;2022-11-04T00:39:52;4.47;;;1.50;;
64208;SDS011;50527;52.414;13.226;2022-11-04T00:42:17;3.03;;;1.20;;
64208;SDS011;50527;52.414;13.226;2022-11-04T00:44:43;6.15;;;1.73;;
64208;SDS011;50527;52.414;13.226;2022-11-04T00:47:08;9.70;;;1.42;;
64208;SDS011;50527;52.414;13.226;2022-11-04T00:49:33;5.82;;;1.40;;
64208;SDS011;50527;52.414;13.226;2022-11-04T00:51:59;6.10;;;1.58;;
64208;SDS011;50527;52.414;13.226;2022-11-04T00:54:24;9.77;;;1.60;;
64208;SDS011;50527;52.414;13.226;2022-11-04T00:56:50;4.57;;;1.40;;
64208;SDS011;50527;52.414;13.226;2022-11-04T00:59:17;10.95;;;1.60;;
64208;SDS011;50527;52.414;13.226;2022-11-04T01:01:43;3.95;;;1.52;;
64208;SDS011;50527;52.414;13.226;2022-11-04T01:04:08;7.93;;;1.63;;
64208;SDS011;50527;52.414;13.226;2022-11-04T01:06:34;8.75;;;1.75;;
64208;SDS011;50527;52.414;13.226;2022-11-04T01:09:00;6.00;;;1.60;;
64208;SDS011;50527;52.414;13.226;2022-11-04T01:11:28;3.45;;;1.38;;
64208;SDS011;50527;52.414;13.226;2022-11-04T01:13:54;3.97;;;1.38;;
64208;SDS011;50527;52.414;13.226;2022-11-04T01:16:21;4.78;;;1.60;;
64208;SDS011;50527;52.414;13.226;2022-11-04T01:18:47;4.82;;;1.60;;
64208;SDS011;50527;52.414;13.226;2022-11-04T01:21:14;5.55;;;1.70;;
64208;SDS011;50527;52.414;13.226;2022-11-04T01:23:41;4.05;;;1.40;;
64208;SDS011;50527;52.414;13.226;2022-11-04T01:26:08;9.82;;;1.70;;
64208;SDS011;50527;52.414;13.226;2022-11-04T01:28:36;4.68;;;1.27;;
64208;SDS011;50527;52.414;13.226;2022-11-04T01:31:05;5.63;;;1.55;;
64208;SDS011;50527;52.414;13.226;2022-11-04T01:36:01;4.13;;;1.30;;
64208;SDS011;50527;52.414;13.226;2022-11-04T01:38:28;4.43;;;1.70;;
64208;SDS011;50527;52.414;13.226;2022-11-04T01:40:53;4.60;;;1.90;;
64208;SDS011;50527;52.414;13.226;2022-11-04T01:43:20;8.13;;;1.70;;
64208;SDS011;50527;52.414;13.226;2022-11-04T01:45:54;5.63;;;1.67;;
64208;SDS011;50527;52.414;13.226;2022-11-04T01:48:24;5.80;;;1.50;;
64208;SDS011;50527;52.414;13.226;2022-11-04T01:50:56;5.65;;;1.88;;
64208;SDS011;50527;52.414;13.226;2022-11-04T01:53:25;6.22;;;1.80;;
64208;SDS011;50527;52.414;13.226;2022-11-04T01:55:55;9.00;;;1.77;;
64208;SDS011;50527;52.414;13.226;2022-11-04T01:58:25;7.22;;;1.95;;
64208;SDS011;50527;52.414;13.226;2022-11-04T02:00:56;10.40;;;2.33;;
64208;SDS011;50527;52.414;13.226;2022-11-04T02:03:31;4.72;;;2.00;;
64208;SDS011;50527;52.414;13.226;2022-11-04T02:06:00;7.38;;;1.85;;
64208;SDS011;50527;52.414;13.226;2022-11-04T02:08:27;5.25;;;1.75;;
64208;SDS011;50527;52.414;13.226;2022-11-04T02:10:53;8.32;;;1.77;;
64208;SDS011;50527;52.414;13.226;2022-11-04T02:13:22;8.13;;;2.08;;
64208;SDS011;50527;52.414;13.226;2022-11-04T02:16:00;6.78;;;1.48;;
64208;SDS011;50527;52.414;13.226;2022-11-04T02:21:23;9.55;;;1.90;;
64208;SDS011;50527;52.414;13.226;2022-11-04T02:24:07;4.82;;;1.92;;
64208;SDS011;50527;52.414;13.226;2022-11-04T02:26:53;7.32;;;1.70;;
64208;SDS011;50527;52.414;13.226;2022-11-04T02:29:40;5.43;;;1.80;;
64208;SDS011;50527;52.414;13.226;2022-11-04T02:32:45;7.22;;;1.80;;
64208;SDS011;50527;52.414;13.226;2022-11-04T02:35:31;6.90;;;2.08;;
64208;SDS011;50527;52.414;13.226;2022-11-04T02:48:38;7.13;;;2.08;;
64208;SDS011;50527;52.414;13.226;2022-11-04T02:53:43;7.30;;;2.03;;
64208;SDS011;50527;52.414;13.226;2022-11-04T02:56:30;4.88;;;1.70;;
64208;SDS011;50527;52.414;13.226;2022-11-04T02:59:03;8.57;;;2.13;;
64208;SDS011;50527;52.414;13.226;2022-11-04T03:01:36;5.85;;;2.08;;
64208;SDS011;50527;52.414;13.226;2022-11-04T03:04:08;6.28;;;2.00;;
64208;SDS011;50527;52.414;13.226;2022-11-04T03:06:38;10.13;;;2.42;;
64208;SDS011;50527;52.414;13.226;2022-11-04T03:09:07;5.47;;;1.90;;
64208;SDS011;50527;52.414;13.226;2022-11-04T03:11:35;5.13;;;1.88;;
64208;SDS011;50527;52.414;13.226;2022-11-04T03:14:04;6.90;;;2.25;;
64208;SDS011;50527;52.414;13.226;2022-11-04T03:16:37;5.78;;;2.08;;
64208;SDS011;50527;52.414;13.226;2022-11-04T03:19:22;4.70;;;1.98;;
64208;SDS011;50527;52.414;13.226;2022-11-04T03:21:57;8.75;;;2.58;;
64208;SDS011;50527;52.414;13.226;2022-11-04T03:24:34;6.97;;;1.85;;
64208;SDS011;50527;52.414;13.226;2022-11-04T03:27:08;5.93;;;1.98;;
64208;SDS011;50527;52.414;13.226;2022-11-04T03:29:56;8.93;;;1.90;;
64208;SDS011;50527;52.414;13.226;2022-11-04T03:32:38;5.18;;;1.92;;
64208;SDS011;50527;52.414;13.226;2022-11-04T03:35:19;4.93;;;2.10;;
64208;SDS011;50527;52.414;13.226;2022-11-04T03:37:45;6.45;;;1.77;;
64208;SDS011;50527;52.414;13.226;2022-11-04T03:40:12;5.47;;;1.95;;
64208;SDS011;50527;52.414;13.226;2022-11-04T03:42:42;7.57;;;2.10;;
64208;SDS011;50527;52.414;13.226;2022-11-04T03:45:17;6.25;;;1.98;;
64208;SDS011;50527;52.414;13.226;2022-11-04T03:47:43;7.13;;;2.40;;
64208;SDS011;50527;52.414;13.226;2022-11-04T03:50:13;9.35;;;2.80;;
64208;SDS011;50527;52.414;13.226;2022-11-04T03:52:45;10.00;;;2.38;;
64208;SDS011;50527;52.414;13.226;2022-11-04T03:55:11;8.20;;;2.20;;
64208;SDS011;50527;52.414;13.226;2022-11-04T03:57:56;6.32;;;2.10;;
64208;SDS011;50527;52.414;13.226;2022-11-04T04:00:28;7.63;;;2.03;;
64208;SDS011;50527;52.414;13.226;2022-11-04T04:03:08;4.30;;;1.92;;
64208;SDS011;50527;52.414;13.226;2022-11-04T04:05:40;6.70;;;2.08;;
64208;SDS011;50527;52.414;13.226;2022-11-04T04:08:19;9.38;;;2.13;;
64208;SDS011;50527;52.414;13.226;2022-11-04T04:11:08;3.72;;;1.75;;
64208;SDS011;50527;52.414;13.226;2022-11-04T04:13:56;5.88;;;1.80;;
64208;SDS011;50527;52.414;13.226;2022-11-04T04:16:38;6.80;;;2.03;;
64208;SDS011;50527;52.414;13.226;2022-11-04T04:19:09;5.10;;;1.70;;
64208;SDS011;50527;52.414;13.226;2022-11-04T04:21:37;8.43;;;2.40;;
64208;SDS011;50527;52.414;13.226;2022-11-04T04:24:14;9.15;;;2.08;;
64208;SDS011;50527;52.414;13.226;2022-11-04T04:27:02;10.48;;;2.13;;
64208;SDS011;50527;52.414;13.226;2022-11-04T04:29:49;8.63;;;2.47;;
64208;SDS011;50527;52.414;13.226;2022-11-04T04:32:17;8.43;;;2.20;;
64208;SDS011;50527;52.414;13.226;2022-11-04T04:34:46;5.60;;;1.73;;
64208;SDS011;50527;52.414;13.226;2022-11-04T04:37:22;6.40;;;1.90;;
64208;SDS011;50527;52.414;13.226;2022-11-04T04:39:53;4.22;;;1.90;;
64208;SDS011;50527;52.414;13.226;2022-11-04T04:42:41;6.07;;;1.55;;
64208;SDS011;50527;52.414;13.226;2022-11-04T04:47:56;4.15;;;2.00;;
64208;SDS011;50527;52.414;13.226;2022-11-04T04:50:22;5.72;;;1.90;;
64208;SDS011;50527;52.414;13.226;2022-11-04T04:52:52;8.60;;;2.20;;
64208;SDS011;50527;52.414;13.226;2022-11-04T04:55:18;5.35;;;1.90;;
64208;SDS011;50527;52.414;13.226;2022-11-04T04:57:44;4.68;;;1.60;;
64208;SDS011;50527;52.414;13.226;2022-11-04T05:00:14;6.00;;;2.00;;
64208;SDS011;50527;52.414;13.226;2022-11-04T05:02:41;6.65;;;1.83;;
64208;SDS011;50527;52.414;13.226;2022-11-04T05:05:07;5.75;;;2.08;;
64208;SDS011;50527;52.414;13.226;2022-11-04T05:07:33;6.60;;;2.00;;
64208;SDS011;50527;52.414;13.226;2022-11-04T05:09:58;4.32;;;2.25;;
64208;SDS011;50527;52.414;13.226;2022-11-04T05:12:24;7.43;;;2.08;;
64208;SDS011;50527;52.414;13.226;2022-11-04T05:14:49;7.18;;;2.00;;
64208;SDS011;50527;52.414;13.226;2022-11-04T05:17:15;5.65;;;1.90;;
64208;SDS011;50527;52.414;13.226;2022-11-04T05:19:40;8.93;;;1.98;;
64208;SDS011;50527;52.414;13.226;2022-11-04T05:22:06;8.73;;;1.92;;
64208;SDS011;50527;52.414;13.226;2022-11-04T05:24:32;6.05;;;2.10;;
64208;SDS011;50527;52.414;13.226;2022-11-04T05:26:57;5.90;;;2.20;;
64208;SDS011;50527;52.414;13.226;2022-11-04T05:29:23;6.47;;;1.80;;
64208;SDS011;50527;52.414;13.226;2022-11-04T05:31:48;13.82;;;1.92;;
64208;SDS011;50527;52.414;13.226;2022-11-04T05:34:13;6.32;;;2.05;;
64208;SDS011;50527;52.414;13.226;2022-11-04T05:36:39;6.18;;;1.90;;
64208;SDS011;50527;52.414;13.226;2022-11-04T05:39:05;9.55;;;2.33;;
64208;SDS011;50527;52.414;13.226;2022-11-04T05:41:31;4.63;;;2.30;;
64208;SDS011;50527;52.414;13.226;2022-11-04T05:43:58;4.93;;;1.80;;
64208;SDS011;50527;52.414;13.226;2022-11-04T05:46:26;4.72;;;2.13;;
64208;SDS011;50527;52.414;13.226;2022-11-04T05:48:52;6.38;;;2.40;;
64208;SDS011;50527;52.414;13.226;2022-11-04T05:51:19;3.92;;;1.85;;
64208;SDS011;50527;52.414;13.226;2022-11-04T05:53:46;6.57;;;1.92;;
64208;SDS011;50527;52.414;13.226;2022-11-04T05:56:12;5.82;;;2.28;;
64208;SDS011;50527;52.414;13.226;2022-11-04T05:58:37;6.72;;;2.28;;
64208;SDS011;50527;52.414;13.226;2022-11-04T06:01:10;5.25;;;2.25;;
64208;SDS011;50527;52.414;13.226;2022-11-04T06:03:38;8.80;;;2.53;;
64208;SDS011;50527;52.414;13.226;2022-11-04T06:06:04;4.60;;;2.03;;
64208;SDS011;50527;52.414;13.226;2022-11-04T06:08:30;5.15;;;2.20;;
64208;SDS011;50527;52.414;13.226;2022-11-04T06:10:55;6.07;;;2.45;;
64208;SDS011;50527;52.414;13.226;2022-11-04T06:13:21;5.93;;;2.38;;
64208;SDS011;50527;52.414;13.226;2022-11-04T06:15:47;7.82;;;2.13;;
64208;SDS011;50527;52.414;13.226;2022-11-04T06:18:12;7.55;;;2.35;;
64208;SDS011;50527;52.414;13.226;2022-11-04T06:20:38;10.18;;;2.78;;
64208;SDS011;50527;52.414;13.226;2022-11-04T06:23:03;6.95;;;2.13;;
64208;SDS011;50527;52.414;13.226;2022-11-04T06:25:29;8.18;;;2.22;;
64208;SDS011;50527;52.414;13.226;2022-11-04T06:27:54;6.82;;;2.70;;
64208;SDS011;50527;52.414;13.226;2022-11-04T06:30:19;7.38;;;2.67;;
64208;SDS011;50527;52.414;13.226;2022-11-04T06:32:45;8.45;;;3.28;;
64208;SDS011;50527;52.414;13.226;2022-11-04T06:35:11;6.10;;;2.80;;
64208;SDS011;50527;52.414;13.226;2022-11-04T06:37:37;6.03;;;3.30;;
64208;SDS011;50527;52.414;13.226;2022-11-04T06:40:02;10.77;;;3.80;;
64208;SDS011;50527;52.414;13.226;2022-11-04T06:42:28;7.97;;;3.20;;
64208;SDS011;50527;52.414;13.226;2022-11-04T06:44:54;7.32;;;3.03;;
64208;SDS011;50527;52.414;13.226;2022-11-04T06:47:19;8.65;;;3.75;;
64208;SDS011;50527;52.414;13.226;2022-11-04T06:49:45;9.70;;;3.60;;
64208;SDS011;50527;52.414;13.226;2022-11-04T06:52:10;7.18;;;3.15;;
64208;SDS011;50527;52.414;13.226;2022-11-04T06:54:35;8.15;;;3.92;;
64208;SDS011;50527;52.414;13.226;2022-11-04T06:57:01;17.17;;;3.75;;
64208;SDS011;50527;52.414;13.226;2022-11-04T06:59:27;10.73;;;3.60;;
64208;SDS011;50527;52.414;13.226;2022-11-04T07:01:53;9.60;;;3.25;;
64208;SDS011;50527;52.414;13.226;2022-11-04T07:04:18;11.98;;;3.20;;
64208;SDS011;50527;52.414;13.226;2022-11-04T07:06:43;11.70;;;3.25;;
64208;SDS011;50527;52.414;13.226;2022-11-04T07:09:09;8.45;;;3.67;;
64208;SDS011;50527;52.414;13.226;2022-11-04T07:11:36;10.60;;;3.42;;
64208;SDS011;50527;52.414;13.226;2022-11-04T07:14:02;10.80;;;3.30;;
64208;SDS011;50527;52.414;13.226;2022-11-04T07:16:27;6.97;;;3.30;;
64208;SDS011;50527;52.414;13.226;2022-11-04T07:18:54;9.27;;;3.42;;
64208;SDS011;50527;52.414;13.226;2022-11-04T07:21:19;8.48;;;3.38;;
64208;SDS011;50527;52.414;13.226;2022-11-04T07:23:45;6.47;;;3.13;;
64208;SDS011;50527;52.414;13.226;2022-11-04T07:26:10;8.50;;;3.28;;
64208;SDS011;50527;52.414;13.226;2022-11-04T07:28:36;8.23;;;3.13;;
64208;SDS011;50527;52.414;13.226;2022-11-04T07:31:03;7.47;;;3.17;;
64208;SDS011;50527;52.414;13.226;2022-11-04T07:33:29;7.45;;;3.60;;
64208;SDS011;50527;52.414;13.226;2022-11-04T07:35:56;11.18;;;3.67;;
64208;SDS011;50527;52.414;13.226;2022-11-04T07:38:22;13.07;;;4.10;;
64208;SDS011;50527;52.414;13.226;2022-11-04T07:40:47;9.88;;;3.58;;
64208;SDS011;50527;52.414;13.226;2022-11-04T07:43:13;7.03;;;3.08;;
64208;SDS011;50527;52.414;13.226;2022-11-04T07:45:39;7.85;;;3.15;;
64208;SDS011;50527;52.414;13.226;2022-11-04T07:48:05;11.18;;;3.58;;
64208;SDS011;50527;52.414;13.226;2022-11-04T07:50:31;11.23;;;3.35;;
64208;SDS011;50527;52.414;13.226;2022-11-04T07:52:58;11.15;;;3.35;;
64208;SDS011;50527;52.414;13.226;2022-11-04T07:55:24;7.18;;;3.00;;
64208;SDS011;50527;52.414;13.226;2022-11-04T07:57:49;12.13;;;4.22;;
64208;SDS011;50527;52.414;13.226;2022-11-04T08:00:15;7.45;;;3.30;;
64208;SDS011;50527;52.414;13.226;2022-11-04T08:02:41;8.27;;;3.13;;
64208;SDS011;50527;52.414;13.226;2022-11-04T08:05:11;9.30;;;3.50;;
64208;SDS011;50527;52.414;13.226;2022-11-04T08:07:40;7.47;;;3.40;;
64208;SDS011;50527;52.414;13.226;2022-11-04T08:10:06;10.65;;;3.17;;
64208;SDS011;50527;52.414;13.226;2022-11-04T08:12:32;7.38;;;3.47;;
64208;SDS011;50527;52.414;13.226;2022-11-04T08:14:58;10.68;;;3.70;;
64208;SDS011;50527;52.414;13.226;2022-11-04T08:17:24;6.50;;;3.42;;
64208;SDS011;50527;52.414;13.226;2022-11-04T08:19:49;9.07;;;3.85;;
64208;SDS011;50527;52.414;13.226;2022-11-04T08:22:15;7.97;;;3.22;;
64208;SDS011;50527;52.414;13.226;2022-11-04T08:24:40;9.48;;;3.40;;
64208;SDS011;50527;52.414;13.226;2022-11-04T08:27:06;9.38;;;3.80;;
64208;SDS011;50527;52.414;13.226;2022-11-04T08:29:32;10.82;;;3.30;;
64208;SDS011;50527;52.414;13.226;2022-11-04T08:31:58;8.55;;;3.08;;
64208;SDS011;50527;52.414;13.226;2022-11-04T08:34:24;10.23;;;3.13;;
64208;SDS011;50527;52.414;13.226;2022-11-04T08:36:49;10.00;;;3.30;;
64208;SDS011;50527;52.414;13.226;2022-11-04T08:39:17;7.38;;;3.15;;
64208;SDS011;50527;52.414;13.226;2022-11-04T08:41:43;10.30;;;4.22;;
64208;SDS011;50527;52.414;13.226;2022-11-04T08:44:09;8.93;;;3.05;;
64208;SDS011;50527;52.414;13.226;2022-11-04T08:46:38;6.82;;;3.10;;
64208;SDS011;50527;52.414;13.226;2022-11-04T08:49:05;6.50;;;2.75;;
64208;SDS011;50527;52.414;13.226;2022-11-04T08:51:32;7.63;;;2.65;;
64208;SDS011;50527;52.414;13.226;2022-11-04T08:53:59;7.40;;;2.70;;
64208;SDS011;50527;52.414;13.226;2022-11-04T08:56:26;5.05;;;2.45;;
64208;SDS011;50527;52.414;13.226;2022-11-04T08:58:54;7.63;;;2.80;;
64208;SDS011;50527;52.414;13.226;2022-11-04T09:01:22;6.57;;;2.40;;
64208;SDS011;50527;52.414;13.226;2022-11-04T09:03:48;7.35;;;2.45;;
64208;SDS011;50527;52.414;13.226;2022-11-04T09:06:17;10.65;;;3.05;;
64208;SDS011;50527;52.414;13.226;2022-11-04T09:08:45;9.32;;;2.55;;
64208;SDS011;50527;52.414;13.226;2022-11-04T09:11:11;6.30;;;2.63;;
64208;SDS011;50527;52.414;13.226;2022-11-04T09:13:38;7.68;;;2.70;;
64208;SDS011;50527;52.414;13.226;2022-11-04T09:16:04;6.07;;;2.33;;
64208;SDS011;50527;52.414;13.226;2022-11-04T09:18:30;4.72;;;2.15;;
64208;SDS011;50527;52.414;13.226;2022-11-04T09:20:59;3.97;;;1.88;;
64208;SDS011;50527;52.414;13.226;2022-11-04T09:23:26;5.20;;;2.13;;
64208;SDS011;50527;52.414;13.226;2022-11-04T09:25:51;5.90;;;2.25;;
64208;SDS011;50527;52.414;13.226;2022-11-04T09:28:17;4.53;;;1.88;;
64208;SDS011;50527;52.414;13.226;2022-11-04T09:30:42;4.97;;;1.98;;
64208;SDS011;50527;52.414;13.226;2022-11-04T09:33:08;3.65;;;1.52;;
64208;SDS011;50527;52.414;13.226;2022-11-04T09:35:34;5.13;;;2.17;;
64208;SDS011;50527;52.414;13.226;2022-11-04T09:37:59;6.63;;;1.80;;
64208;SDS011;50527;52.414;13.226;2022-11-04T09:40:25;3.95;;;1.80;;
64208;SDS011;50527;52.414;13.226;2022-11-04T09:45:49;5.75;;;1.80;;
64208;SDS011;50527;52.414;13.226;2022-11-04T09:48:25;3.60;;;1.60;;
64208;SDS011;50527;52.414;13.226;2022-11-04T09:50:59;3.03;;;1.55;;
64208;SDS011;50527;52.414;13.226;2022-11-04T09:54:14;5.10;;;1.83;;
64208;SDS011;50527;52.414;13.226;2022-11-04T09:56:24;6.07;;;1.88;;
64208;SDS011;50527;52.414;13.226;2022-11-04T09:58:54;4.72;;;1.90;;
64208;SDS011;50527;52.414;13.226;2022-11-04T10:01:22;4.47;;;1.67;;
64208;SDS011;50527;52.414;13.226;2022-11-04T10:18:04;4.10;;;1.80;;
64208;SDS011;50527;52.414;13.226;2022-11-04T10:20:51;5.38;;;1.73;;
64208;SDS011;50527;52.414;13.226;2022-11-04T10:23:28;5.30;;;1.92;;
64208;SDS011;50527;52.414;13.226;2022-11-04T10:28:42;4.93;;;1.52;;
64208;SDS011;50527;52.414;13.226;2022-11-04T10:31:15;3.15;;;1.70;;
64208;SDS011;50527;52.414;13.226;2022-11-04T10:33:43;7.13;;;1.67;;
64208;SDS011;50527;52.414;13.226;2022-11-04T10:36:12;6.35;;;2.10;;
64208;SDS011;50527;52.414;13.226;2022-11-04T10:38:51;3.40;;;1.83;;
64208;SDS011;50527;52.414;13.226;2022-11-04T10:43:57;3.20;;;1.52;;
64208;SDS011;50527;52.414;13.226;2022-11-04T10:49:34;6.20;;;1.73;;
64208;SDS011;50527;52.414;13.226;2022-11-04T10:52:13;3.95;;;1.63;;
64208;SDS011;50527;52.414;13.226;2022-11-04T10:54:40;3.50;;;1.60;;
64208;SDS011;50527;52.414;13.226;2022-11-04T10:57:08;3.38;;;1.65;;
64208;SDS011;50527;52.414;13.226;2022-11-04T11:02:41;5.65;;;1.70;;
64208;SDS011;50527;52.414;13.226;2022-11-04T11:07:48;3.92;;;1.85;;
64208;SDS011;50527;52.414;13.226;2022-11-04T11:10:23;4.15;;;1.75;;
64208;SDS011;50527;52.414;13.226;2022-11-04T11:13:01;4.93;;;1.80;;
64208;SDS011;50527;52.414;13.226;2022-11-04T11:15:32;2.47;;;1.30;;
64208;SDS011;50527;52.414;13.226;2022-11-04T11:18:15;5.55;;;1.95;;
64208;SDS011;50527;52.414;13.226;2022-11-04T11:20:49;8.90;;;1.77;;
64208;SDS011;50527;52.414;13.226;2022-11-04T11:23:32;4.65;;;1.67;;
64208;SDS011;50527;52.414;13.226;2022-11-04T11:25:59;3.25;;;1.70;;
64208;SDS011;50527;52.414;13.226;2022-11-04T11:28:26;5.90;;;1.77;;
64208;SDS011;50527;52.414;13.226;2022-11-04T11:30:54;4.45;;;1.98;;
64208;SDS011;50527;52.414;13.226;2022-11-04T11:33:28;3.47;;;1.48;;
64208;SDS011;50527;52.414;13.226;2022-11-04T11:38:36;4.57;;;2.00;;
64208;SDS011;50527;52.414;13.226;2022-11-04T11:41:14;3.83;;;1.70;;
64208;SDS011;50527;52.414;13.226;2022-11-04T11:43:48;3.92;;;1.70;;
64208;SDS011;50527;52.414;13.226;2022-11-04T11:48:52;3.17;;;1.90;;
64208;SDS011;50527;52.414;13.226;2022-11-04T11:51:22;4.18;;;2.00;;
64208;SDS011;50527;52.414;13.226;2022-11-04T11:54:00;5.88;;;1.73;;
64208;SDS011;50527;52.414;13.226;2022-11-04T11:56:37;6.50;;;2.22;;
64208;SDS011;50527;52.414;13.226;2022-11-04T11:59:12;3.17;;;1.90;;
64208;SDS011;50527;52.414;13.226;2022-11-04T12:01:44;5.47;;;1.75;;
64208;SDS011;50527;52.414;13.226;2022-11-04T12:04:15;3.17;;;1.60;;
64208;SDS011;50527;52.414;13.226;2022-11-04T12:06:56;6.28;;;1.85;;
64208;SDS011;50527;52.414;13.226;2022-11-04T12:09:46;4.00;;;1.80;;
64208;SDS011;50527;52.414;13.226;2022-11-04T12:12:38;3.70;;;1.92;;
64208;SDS011;50527;52.414;13.226;2022-11-04T12:15:16;5.50;;;1.85;;
64208;SDS011;50527;52.414;13.226;2022-11-04T12:17:59;5.85;;;2.00;;
64208;SDS011;50527;52.414;13.226;2022-11-04T12:21:19;5.13;;;1.98;;
64208;SDS011;50527;52.414;13.226;2022-11-04T12:23:42;3.80;;;1.75;;
64208;SDS011;50527;52.414;13.226;2022-11-04T12:29:02;6.32;;;2.38;;
64208;SDS011;50527;52.414;13.226;2022-11-04T12:34:34;3.72;;;1.90;;
64208;SDS011;50527;52.414;13.226;2022-11-04T12:37:11;4.22;;;1.90;;
64208;SDS011;50527;52.414;13.226;2022-11-04T12:40:01;3.88;;;1.95;;
64208;SDS011;50527;52.414;13.226;2022-11-04T12:43:01;6.25;;;2.20;;
64208;SDS011;50527;52.414;13.226;2022-11-04T12:45:51;5.63;;;1.98;;
64208;SDS011;50527;52.414;13.226;2022-11-04T12:48:28;4.63;;;1.92;;
64208;SDS011;50527;52.414;13.226;2022-11-04T12:51:29;4.13;;;1.88;;
64208;SDS011;50527;52.414;13.226;2022-11-04T12:54:15;3.33;;;1.70;;
64208;SDS011;50527;52.414;13.226;2022-11-04T12:57:09;4.38;;;2.03;;
64208;SDS011;50527;52.414;13.226;2022-11-04T13:00:04;4.20;;;2.08;;
64208;SDS011;50527;52.414;13.226;2022-11-04T13:02:34;4.05;;;1.88;;
64208;SDS011;50527;52.414;13.226;2022-11-04T13:05:14;3.78;;;1.88;;
64208;SDS011;50527;52.414;13.226;2022-11-04T13:07:59;2.88;;;1.70;;
64208;SDS011;50527;52.414;13.226;2022-11-04T13:10:46;7.70;;;2.15;;
64208;SDS011;50527;52.414;13.226;2022-11-04T13:13:22;5.45;;;1.95;;
64208;SDS011;50527;52.414;13.226;2022-11-04T13:16:00;6.03;;;2.10;;
64208;SDS011;50527;52.414;13.226;2022-11-04T13:18:30;3.20;;;1.73;;
64208;SDS011;50527;52.414;13.226;2022-11-04T13:21:04;4.28;;;1.92;;
64208;SDS011;50527;52.414;13.226;2022-11-04T13:23:38;5.95;;;2.38;;
64208;SDS011;50527;52.414;13.226;2022-11-04T13:26:11;4.53;;;2.38;;
64208;SDS011;50527;52.414;13.226;2022-11-04T13:28:39;4.75;;;2.30;;
64208;SDS011;50527;52.414;13.226;2022-11-04T13:31:09;7.80;;;1.90;;
64208;SDS011;50527;52.414;13.226;2022-11-04T13:36:44;5.60;;;1.80;;
64208;SDS011;50527;52.414;13.226;2022-11-04T13:39:26;6.18;;;1.85;;
64208;SDS011;50527;52.414;13.226;2022-11-04T13:42:10;3.75;;;1.55;;
64208;SDS011;50527;52.414;13.226;2022-11-04T13:44:48;3.13;;;1.90;;
64208;SDS011;50527;52.414;13.226;2022-11-04T13:47:20;5.88;;;2.13;;
64208;SDS011;50527;52.414;13.226;2022-11-04T13:49:52;3.70;;;1.83;;
64208;SDS011;50527;52.414;13.226;2022-11-04T13:52:19;4.93;;;1.80;;
64208;SDS011;50527;52.414;13.226;2022-11-04T13:57:17;7.63;;;2.40;;
64208;SDS011;50527;52.414;13.226;2022-11-04T14:00:05;5.30;;;2.30;;
64208;SDS011;50527;52.414;13.226;2022-11-04T14:02:44;4.55;;;2.08;;
64208;SDS011;50527;52.414;13.226;2022-11-04T14:18:26;3.92;;;1.73;;
64208;SDS011;50527;52.414;13.226;2022-11-04T14:21:06;5.00;;;1.73;;
64208;SDS011;50527;52.414;13.226;2022-11-04T14:23:40;3.13;;;1.60;;
64208;SDS011;50527;52.414;13.226;2022-11-04T14:26:08;4.38;;;1.75;;
64208;SDS011;50527;52.414;13.226;2022-11-04T14:28:36;3.20;;;1.45;;
64208;SDS011;50527;52.414;13.226;2022-11-04T14:31:07;4.35;;;1.55;;
64208;SDS011;50527;52.414;13.226;2022-11-04T14:33:38;5.40;;;1.90;;
64208;SDS011;50527;52.414;13.226;2022-11-04T14:36:22;4.32;;;1.67;;
64208;SDS011;50527;52.414;13.226;2022-11-04T14:38:53;5.40;;;2.00;;
64208;SDS011;50527;52.414;13.226;2022-11-04T14:41:30;3.63;;;1.90;;
64208;SDS011;50527;52.414;13.226;2022-11-04T14:46:39;3.30;;;1.77;;
64208;SDS011;50527;52.414;13.226;2022-11-04T14:49:17;5.20;;;1.92;;
64208;SDS011;50527;52.414;13.226;2022-11-04T14:52:36;4.55;;;1.92;;
64208;SDS011;50527;52.414;13.226;2022-11-04T14:57:50;4.97;;;2.17;;
64208;SDS011;50527;52.414;13.226;2022-11-04T15:00:37;3.85;;;2.10;;
64208;SDS011;50527;52.414;13.226;2022-11-04T15:03:15;5.72;;;2.40;;
64208;SDS011;50527;52.414;13.226;2022-11-04T15:05:49;6.05;;;1.80;;
64208;SDS011;50527;52.414;13.226;2022-11-04T15:08:34;4.05;;;2.47;;
64208;SDS011;50527;52.414;13.226;2022-11-04T15:11:10;5.85;;;1.70;;
64208;SDS011;50527;52.414;13.226;2022-11-04T15:13:45;4.82;;;1.83;;
64208;SDS011;50527;52.414;13.226;2022-11-04T15:16:23;3.70;;;1.88;;
64208;SDS011;50527;52.414;13.226;2022-11-04T15:18:51;5.80;;;2.13;;
64208;SDS011;50527;52.414;13.226;2022-11-04T15:21:18;3.50;;;1.75;;
64208;SDS011;50527;52.414;13.226;2022-11-04T15:23:45;4.28;;;2.25;;
64208;SDS011;50527;52.414;13.226;2022-11-04T15:26:25;2.67;;;1.85;;
64208;SDS011;50527;52.414;13.226;2022-11-04T15:28:54;5.38;;;2.00;;
64208;SDS011;50527;52.414;13.226;2022-11-04T15:31:22;5.60;;;2.40;;
64208;SDS011;50527;52.414;13.226;2022-11-04T15:33:51;4.63;;;2.30;;
64208;SDS011;50527;52.414;13.226;2022-11-04T15:36:20;7.82;;;2.40;;
64208;SDS011;50527;52.414;13.226;2022-11-04T15:38:56;4.30;;;2.10;;
64208;SDS011;50527;52.414;13.226;2022-11-04T15:41:25;5.00;;;1.73;;
64208;SDS011;50527;52.414;13.226;2022-11-04T15:44:13;4.25;;;2.00;;
64208;SDS011;50527;52.414;13.226;2022-11-04T15:46:45;4.03;;;2.30;;
64208;SDS011;50527;52.414;13.226;2022-11-04T15:49:20;5.13;;;2.20;;
64208;SDS011;50527;52.414;13.226;2022-11-04T15:54:21;8.02;;;1.90;;
64208;SDS011;50527;52.414;13.226;2022-11-04T15:56:51;3.70;;;1.77;;
64208;SDS011;50527;52.414;13.226;2022-11-04T15:59:24;4.50;;;1.85;;
64208;SDS011;50527;52.414;13.226;2022-11-04T16:01:53;4.68;;;2.10;;
64208;SDS011;50527;52.414;13.226;2022-11-04T16:04:20;5.80;;;2.22;;
64208;SDS011;50527;52.414;13.226;2022-11-04T16:07:02;7.22;;;2.50;;
64208;SDS011;50527;52.414;13.226;2022-11-04T16:09:30;4.90;;;1.88;;
64208;SDS011;50527;52.414;13.226;2022-11-04T16:12:16;4.47;;;2.08;;
64208;SDS011;50527;52.414;13.226;2022-11-04T16:14:51;5.55;;;1.98;;
64208;SDS011;50527;52.414;13.226;2022-11-04T16:17:21;3.63;;;1.80;;
64208;SDS011;50527;52.414;13.226;2022-11-04T16:19:54;5.53;;;2.13;;
64208;SDS011;50527;52.414;13.226;2022-11-04T16:22:25;3.60;;;1.83;;
64208;SDS011;50527;52.414;13.226;2022-11-04T16:24:53;3.78;;;1.70;;
64208;SDS011;50527;52.414;13.226;2022-11-04T16:27:21;6.07;;;2.33;;
64208;SDS011;50527;52.414;13.226;2022-11-04T16:29:52;6.47;;;1.85;;
64208;SDS011;50527;52.414;13.226;2022-11-04T16:32:30;5.20;;;2.00;;